sensor_id;sensor_type;location;lat;lon;timestamp;pressure;altitude;pressure_sealevel;temperature;humidity
6464;BME280;3265;42.694;23.282;2023-02-28T00:02:06;95078.03;;;8.06;100.00
6464;BME280;3265;42.694;23.282;2023-02-28T00:04:33;95080.03;;;8.04;100.00
6464;BME280;3265;42.694;23.282;2023-02-28T00:07:00;95074.25;;;8.02;100.00
6464;BME280;3265;42.694;23.282;2023-02-28T00:09:26;95093.34;;;8.01;100.00
6464;BME280;3265;42.694;23.282;2023-02-28T00:11:53;95087.16;;;7.95;100.00
6464;BME280;3265;42.694;23.282;2023-02-28T00:14:20;95078.53;;;7.88;100.00
6464;BME280;3265;42.694;23.282;2023-02-28T00:16:47;95095.34;;;8.06;100.00
6464;BME280;3265;42.694;23.282;2023-02-28T00:19:15;95100.94;;;8.09;100.00
6464;BME280;3265;42.694;23.282;2023-02-28T00:21:42;95089.78;;;8.09;100.00
6464;BME280;3265;42.694;23.282;2023-02-28T00:24:09;95106.16;;;8.16;100.00
6464;BME280;3265;42.694;23.282;2023-02-28T00:26:36;95116.53;;;8.16;100.00
6464;BME280;3265;42.694;23.282;2023-02-28T00:29:03;95111.53;;;8.14;100.00
6464;BME280;3265;42.694;23.282;2023-02-28T00:31:29;95092.50;;;7.94;100.00
6464;BME280;3265;42.694;23.282;2023-02-28T00:33:56;95104.34;;;8.10;100.00
6464;BME280;3265;42.694;23.282;2023-02-28T00:36:24;95102.13;;;8.07;100.00
6464;BME280;3265;42.694;23.282;2023-02-28T00:38:52;95107.75;;;8.17;100.00
6464;BME280;3265;42.694;23.282;2023-02-28T00:41:18;95116.91;;;8.13;100.00
6464;BME280;3265;42.694;23.282;2023-02-28T00:43:45;95116.09;;;8.12;100.00
6464;BME280;3265;42.694;23.282;2023-02-28T00:46:12;95110.91;;;8.12;100.00
6464;BME280;3265;42.694;23.282;2023-02-28T00:48:39;95115.28;;;8.12;100.00
6464;BME280;3265;42.694;23.282;2023-02-28T00:51:06;95107.50;;;8.05;100.00
6464;BME280;3265;42.694;23.282;2023-02-28T00:53:34;95098.69;;;7.99;100.00
6464;BME280;3265;42.694;23.282;2023-02-28T00:56:01;95101.72;;;8.03;100.00
6464;BME280;3265;42.694;23.282;2023-02-28T00:58:28;95108.50;;;8.04;100.00
6464;BME280;3265;42.694;23.282;2023-02-28T01:00:55;95102.28;;;7.98;100.00
6464;BME280;3265;42.694;23.282;2023-02-28T01:03:22;95103.47;;;7.96;100.00
6464;BME280;3265;42.694;23.282;2023-02-28T01:05:49;95103.66;;;7.94;100.00
6464;BME280;3265;42.694;23.282;2023-02-28T01:08:18;95103.00;;;7.86;100.00
6464;BME280;3265;42.694;23.282;2023-02-28T01:10:46;95088.44;;;7.78;100.00
6464;BME280;3265;42.694;23.282;2023-02-28T01:13:14;95106.78;;;7.83;100.00
6464;BME280;3265;42.694;23.282;2023-02-28T01:15:44;95086.78;;;7.71;100.00
6464;BME280;3265;42.694;23.282;2023-02-28T01:18:12;95094.91;;;7.68;100.00
6464;BME280;3265;42.694;23.282;2023-02-28T01:20:39;95109.50;;;7.75;100.00
6464;BME280;3265;42.694;23.282;2023-02-28T01:23:06;95104.28;;;7.69;100.00
6464;BME280;3265;42.694;23.282;2023-02-28T01:25:34;95093.06;;;7.55;100.00
6464;BME280;3265;42.694;23.282;2023-02-28T01:28:02;95104.28;;;7.41;100.00
6464;BME280;3265;42.694;23.282;2023-02-28T01:30:29;95095.66;;;7.34;100.00
6464;BME280;3265;42.694;23.282;2023-02-28T01:32:56;95090.13;;;7.37;100.00
6464;BME280;3265;42.694;23.282;2023-02-28T01:35:26;95082.50;;;7.29;100.00
6464;BME280;3265;42.694;23.282;2023-02-28T01:37:53;95096.84;;;7.31;100.00
6464;BME280;3265;42.694;23.282;2023-02-28T01:40:22;95089.03;;;7.25;100.00
6464;BME280;3265;42.694;23.282;2023-02-28T01:42:49;95083.41;;;7.15;100.00
6464;BME280;3265;42.694;23.282;2023-02-28T01:45:23;95094.56;;;7.22;100.00
6464;BME280;3265;42.694;23.282;2023-02-28T01:48:05;95107.41;;;7.36;100.00
6464;BME280;3265;42.694;23.282;2023-02-28T01:51:08;95085.03;;;7.22;100.00
6464;BME280;3265;42.694;23.282;2023-02-28T01:53:57;95113.31;;;7.24;100.00
6464;BME280;3265;42.694;23.282;2023-02-28T01:56:28;95098.53;;;7.18;100.00
6464;BME280;3265;42.694;23.282;2023-02-28T01:58:56;95101.06;;;7.11;100.00
6464;BME280;3265;42.694;23.282;2023-02-28T02:01:26;95113.06;;;6.98;100.00
6464;BME280;3265;42.694;23.282;2023-02-28T02:03:56;95107.88;;;6.98;100.00
6464;BME280;3265;42.694;23.282;2023-02-28T02:06:25;95108.84;;;6.97;100.00
6464;BME280;3265;42.694;23.282;2023-02-28T02:08:54;95096.69;;;6.69;100.00
6464;BME280;3265;42.694;23.282;2023-02-28T02:11:23;95096.84;;;6.68;100.00
6464;BME280;3265;42.694;23.282;2023-02-28T02:16:56;95093.41;;;6.82;100.00
6464;BME280;3265;42.694;23.282;2023-02-28T02:23:06;95102.25;;;6.73;100.00
6464;BME280;3265;42.694;23.282;2023-02-28T02:25:38;95084.31;;;6.65;100.00
6464;BME280;3265;42.694;23.282;2023-02-28T02:28:22;95084.63;;;6.76;100.00
6464;BME280;3265;42.694;23.282;2023-02-28T02:31:08;95076.31;;;6.60;100.00
6464;BME280;3265;42.694;23.282;2023-02-28T02:34:09;95090.56;;;6.56;100.00
6464;BME280;3265;42.694;23.282;2023-02-28T02:36:48;95091.63;;;6.47;100.00
6464;BME280;3265;42.694;23.282;2023-02-28T02:39:27;95084.31;;;6.29;100.00
6464;BME280;3265;42.694;23.282;2023-02-28T02:42:00;95105.13;;;6.27;100.00
6464;BME280;3265;42.694;23.282;2023-02-28T02:44:31;95100.22;;;6.33;100.00
6464;BME280;3265;42.694;23.282;2023-02-28T02:47:05;95101.75;;;6.27;100.00
6464;BME280;3265;42.694;23.282;2023-02-28T02:49:36;95080.16;;;6.13;100.00
6464;BME280;3265;42.694;23.282;2023-02-28T02:52:07;95095.00;;;6.26;100.00
6464;BME280;3265;42.694;23.282;2023-02-28T02:54:37;95093.75;;;6.07;100.00
6464;BME280;3265;42.694;23.282;2023-02-28T02:57:07;95101.50;;;6.22;100.00
6464;BME280;3265;42.694;23.282;2023-02-28T02:59:36;95099.00;;;6.28;100.00
6464;BME280;3265;42.694;23.282;2023-02-28T03:02:08;95084.41;;;6.21;100.00
6464;BME280;3265;42.694;23.282;2023-02-28T03:04:42;95095.69;;;6.35;100.00
6464;BME280;3265;42.694;23.282;2023-02-28T03:07:10;95115.94;;;6.52;100.00
6464;BME280;3265;42.694;23.282;2023-02-28T03:09:36;95119.50;;;6.51;100.00
6464;BME280;3265;42.694;23.282;2023-02-28T03:12:07;95108.56;;;6.49;100.00
6464;BME280;3265;42.694;23.282;2023-02-28T03:14:45;95112.50;;;6.45;100.00
6464;BME280;3265;42.694;23.282;2023-02-28T03:17:39;95131.16;;;6.62;100.00
6464;BME280;3265;42.694;23.282;2023-02-28T03:20:17;95145.75;;;6.69;100.00
6464;BME280;3265;42.694;23.282;2023-02-28T03:23:01;95121.25;;;6.65;100.00
6464;BME280;3265;42.694;23.282;2023-02-28T03:25:37;95148.66;;;6.81;100.00
6464;BME280;3265;42.694;23.282;2023-02-28T03:28:09;95138.94;;;6.83;100.00
6464;BME280;3265;42.694;23.282;2023-02-28T03:30:44;95134.94;;;6.80;100.00
6464;BME280;3265;42.694;23.282;2023-02-28T03:33:17;95136.53;;;6.81;100.00
6464;BME280;3265;42.694;23.282;2023-02-28T03:35:50;95136.72;;;6.80;100.00
6464;BME280;3265;42.694;23.282;2023-02-28T03:38:24;95142.13;;;6.85;100.00
6464;BME280;3265;42.694;23.282;2023-02-28T03:40:57;95151.38;;;6.94;100.00
6464;BME280;3265;42.694;23.282;2023-02-28T03:43:31;95154.63;;;7.03;100.00
6464;BME280;3265;42.694;23.282;2023-02-28T03:46:05;95121.81;;;6.82;100.00
6464;BME280;3265;42.694;23.282;2023-02-28T03:48:38;95154.63;;;7.03;100.00
6464;BME280;3265;42.694;23.282;2023-02-28T03:51:10;95166.75;;;7.02;100.00
6464;BME280;3265;42.694;23.282;2023-02-28T03:53:42;95149.66;;;7.01;100.00
6464;BME280;3265;42.694;23.282;2023-02-28T03:56:15;95151.84;;;7.04;100.00
6464;BME280;3265;42.694;23.282;2023-02-28T03:58:47;95168.06;;;7.13;100.00
6464;BME280;3265;42.694;23.282;2023-02-28T04:01:20;95167.69;;;7.16;100.00
6464;BME280;3265;42.694;23.282;2023-02-28T04:03:49;95133.72;;;6.98;100.00
6464;BME280;3265;42.694;23.282;2023-02-28T04:06:19;95162.72;;;7.14;100.00
6464;BME280;3265;42.694;23.282;2023-02-28T04:08:47;95165.28;;;7.14;100.00
6464;BME280;3265;42.694;23.282;2023-02-28T04:11:20;95148.50;;;7.04;100.00
6464;BME280;3265;42.694;23.282;2023-02-28T04:13:47;95127.19;;;7.02;100.00
6464;BME280;3265;42.694;23.282;2023-02-28T04:16:14;95171.88;;;7.17;100.00
6464;BME280;3265;42.694;23.282;2023-02-28T04:18:41;95160.72;;;7.16;100.00
6464;BME280;3265;42.694;23.282;2023-02-28T04:21:10;95156.94;;;7.12;100.00
6464;BME280;3265;42.694;23.282;2023-02-28T04:23:39;95146.31;;;7.07;100.00
6464;BME280;3265;42.694;23.282;2023-02-28T04:26:06;95157.78;;;7.19;100.00
6464;BME280;3265;42.694;23.282;2023-02-28T04:28:33;95167.94;;;7.21;100.00
6464;BME280;3265;42.694;23.282;2023-02-28T04:31:04;95150.34;;;7.10;100.00
6464;BME280;3265;42.694;23.282;2023-02-28T04:33:32;95157.59;;;7.21;100.00
6464;BME280;3265;42.694;23.282;2023-02-28T04:35:59;95160.34;;;7.19;100.00
6464;BME280;3265;42.694;23.282;2023-02-28T04:38:28;95154.75;;;7.16;100.00
6464;BME280;3265;42.694;23.282;2023-02-28T04:40:58;95173.72;;;7.23;100.00
6464;BME280;3265;42.694;23.282;2023-02-28T04:43:25;95165.78;;;7.24;100.00
6464;BME280;3265;42.694;23.282;2023-02-28T04:45:52;95152.97;;;7.16;100.00
6464;BME280;3265;42.694;23.282;2023-02-28T04:48:22;95173.16;;;7.27;100.00
6464;BME280;3265;42.694;23.282;2023-02-28T04:50:49;95189.66;;;7.26;100.00
6464;BME280;3265;42.694;23.282;2023-02-28T04:53:16;95171.03;;;7.10;100.00
6464;BME280;3265;42.694;23.282;2023-02-28T04:55:45;95186.41;;;7.18;100.00
6464;BME280;3265;42.694;23.282;2023-02-28T04:58:14;95190.41;;;7.20;100.00
6464;BME280;3265;42.694;23.282;2023-02-28T05:00:41;95199.69;;;7.15;100.00
6464;BME280;3265;42.694;23.282;2023-02-28T05:03:08;95190.16;;;7.15;100.00
6464;BME280;3265;42.694;23.282;2023-02-28T05:05:35;95185.34;;;7.12;100.00
6464;BME280;3265;42.694;23.282;2023-02-28T05:08:02;95190.31;;;7.14;100.00
6464;BME280;3265;42.694;23.282;2023-02-28T05:10:30;95177.34;;;7.07;100.00
6464;BME280;3265;42.694;23.282;2023-02-28T05:12:57;95188.34;;;7.16;100.00
6464;BME280;3265;42.694;23.282;2023-02-28T05:15:25;95195.38;;;7.22;100.00
6464;BME280;3265;42.694;23.282;2023-02-28T05:17:52;95193.06;;;7.27;100.00
6464;BME280;3265;42.694;23.282;2023-02-28T05:20:19;95184.06;;;7.23;100.00
6464;BME280;3265;42.694;23.282;2023-02-28T05:22:46;95195.66;;;7.27;100.00
6464;BME280;3265;42.694;23.282;2023-02-28T05:25:16;95201.34;;;7.22;100.00
6464;BME280;3265;42.694;23.282;2023-02-28T05:27:43;95206.06;;;7.19;100.00
6464;BME280;3265;42.694;23.282;2023-02-28T05:30:11;95214.34;;;7.29;100.00
6464;BME280;3265;42.694;23.282;2023-02-28T05:32:40;95210.97;;;7.28;100.00
6464;BME280;3265;42.694;23.282;2023-02-28T05:35:09;95213.19;;;7.31;100.00
6464;BME280;3265;42.694;23.282;2023-02-28T05:37:38;95220.56;;;7.34;100.00
6464;BME280;3265;42.694;23.282;2023-02-28T05:40:06;95213.19;;;7.31;100.00
6464;BME280;3265;42.694;23.282;2023-02-28T05:42:35;95210.53;;;7.25;100.00
6464;BME280;3265;42.694;23.282;2023-02-28T05:45:03;95211.94;;;7.27;100.00
6464;BME280;3265;42.694;23.282;2023-02-28T05:47:29;95226.66;;;7.27;100.00
6464;BME280;3265;42.694;23.282;2023-02-28T05:49:58;95225.22;;;7.24;100.00
6464;BME280;3265;42.694;23.282;2023-02-28T05:52:25;95221.88;;;7.24;100.00
6464;BME280;3265;42.694;23.282;2023-02-28T05:54:52;95212.06;;;7.19;100.00
6464;BME280;3265;42.694;23.282;2023-02-28T05:57:19;95178.63;;;6.97;100.00
6464;BME280;3265;42.694;23.282;2023-02-28T05:59:46;95223.03;;;7.21;100.00
6464;BME280;3265;42.694;23.282;2023-02-28T06:02:14;95222.84;;;7.23;100.00
6464;BME280;3265;42.694;23.282;2023-02-28T06:04:42;95231.88;;;7.33;100.00
6464;BME280;3265;42.694;23.282;2023-02-28T06:07:11;95226.34;;;7.36;100.00
6464;BME280;3265;42.694;23.282;2023-02-28T06:09:38;95224.41;;;7.38;100.00
6464;BME280;3265;42.694;23.282;2023-02-28T06:12:06;95215.59;;;7.33;100.00
6464;BME280;3265;42.694;23.282;2023-02-28T06:14:35;95227.00;;;7.38;100.00
6464;BME280;3265;42.694;23.282;2023-02-28T06:17:03;95220.38;;;7.36;100.00
6464;BME280;3265;42.694;23.282;2023-02-28T06:19:30;95229.00;;;7.43;100.00
6464;BME280;3265;42.694;23.282;2023-02-28T06:21:57;95225.84;;;7.48;100.00
6464;BME280;3265;42.694;23.282;2023-02-28T06:24:26;95227.91;;;7.52;100.00
6464;BME280;3265;42.694;23.282;2023-02-28T06:26:55;95231.78;;;7.63;100.00
6464;BME280;3265;42.694;23.282;2023-02-28T06:29:24;95235.53;;;7.60;100.00
6464;BME280;3265;42.694;23.282;2023-02-28T06:31:51;95227.03;;;7.66;100.00
6464;BME280;3265;42.694;23.282;2023-02-28T06:34:18;95239.41;;;7.71;100.00
6464;BME280;3265;42.694;23.282;2023-02-28T06:36:44;95247.59;;;7.74;100.00
6464;BME280;3265;42.694;23.282;2023-02-28T06:39:11;95240.41;;;7.70;100.00
6464;BME280;3265;42.694;23.282;2023-02-28T06:41:41;95253.50;;;7.68;100.00
6464;BME280;3265;42.694;23.282;2023-02-28T06:44:12;95251.56;;;7.70;100.00
6464;BME280;3265;42.694;23.282;2023-02-28T06:46:39;95249.22;;;7.75;100.00
6464;BME280;3265;42.694;23.282;2023-02-28T06:49:07;95242.78;;;7.71;100.00
6464;BME280;3265;42.694;23.282;2023-02-28T06:51:36;95245.00;;;7.74;100.00
6464;BME280;3265;42.694;23.282;2023-02-28T06:54:03;95253.38;;;7.76;100.00
6464;BME280;3265;42.694;23.282;2023-02-28T06:56:34;95232.81;;;7.68;100.00
6464;BME280;3265;42.694;23.282;2023-02-28T06:59:02;95252.84;;;7.81;100.00
6464;BME280;3265;42.694;23.282;2023-02-28T07:01:30;95256.09;;;7.89;100.00
6464;BME280;3265;42.694;23.282;2023-02-28T07:03:57;95261.84;;;7.85;100.00
6464;BME280;3265;42.694;23.282;2023-02-28T07:06:25;95251.91;;;7.88;100.00
6464;BME280;3265;42.694;23.282;2023-02-28T07:08:53;95251.91;;;7.88;100.00
6464;BME280;3265;42.694;23.282;2023-02-28T07:11:20;95250.84;;;7.83;100.00
6464;BME280;3265;42.694;23.282;2023-02-28T07:13:47;95254.50;;;7.88;100.00
6464;BME280;3265;42.694;23.282;2023-02-28T07:16:16;95246.84;;;7.80;100.00
6464;BME280;3265;42.694;23.282;2023-02-28T07:18:43;95250.31;;;7.87;100.00
6464;BME280;3265;42.694;23.282;2023-02-28T07:21:11;95258.69;;;7.89;100.00
6464;BME280;3265;42.694;23.282;2023-02-28T07:23:39;95259.72;;;7.95;100.00
6464;BME280;3265;42.694;23.282;2023-02-28T07:26:07;95237.13;;;7.82;100.00
6464;BME280;3265;42.694;23.282;2023-02-28T07:28:38;95260.69;;;7.94;100.00
6464;BME280;3265;42.694;23.282;2023-02-28T07:31:09;95252.53;;;7.90;100.00
6464;BME280;3265;42.694;23.282;2023-02-28T07:33:37;95252.78;;;7.95;100.00
6464;BME280;3265;42.694;23.282;2023-02-28T07:36:06;95205.09;;;7.62;100.00
6464;BME280;3265;42.694;23.282;2023-02-28T07:38:34;95244.88;;;7.82;100.00
6464;BME280;3265;42.694;23.282;2023-02-28T07:41:01;95251.28;;;7.86;100.00
6464;BME280;3265;42.694;23.282;2023-02-28T07:43:29;95262.50;;;7.93;100.00
6464;BME280;3265;42.694;23.282;2023-02-28T07:46:01;95265.88;;;7.94;100.00
6464;BME280;3265;42.694;23.282;2023-02-28T07:48:28;95247.28;;;7.84;100.00
6464;BME280;3265;42.694;23.282;2023-02-28T07:50:56;95253.66;;;7.81;100.00
6464;BME280;3265;42.694;23.282;2023-02-28T07:53:23;95250.91;;;7.68;100.00
6464;BME280;3265;42.694;23.282;2023-02-28T07:55:50;95255.28;;;7.68;100.00
6464;BME280;3265;42.694;23.282;2023-02-28T07:58:18;95252.16;;;7.72;100.00
6464;BME280;3265;42.694;23.282;2023-02-28T08:00:45;95255.72;;;7.71;100.00
6464;BME280;3265;42.694;23.282;2023-02-28T08:03:12;95241.94;;;7.64;100.00
6464;BME280;3265;42.694;23.282;2023-02-28T08:05:39;95250.41;;;7.79;100.00
6464;BME280;3265;42.694;23.282;2023-02-28T08:08:08;95231.28;;;7.74;100.00
6464;BME280;3265;42.694;23.282;2023-02-28T08:10:35;95242.41;;;7.95;100.00
6464;BME280;3265;42.694;23.282;2023-02-28T08:13:03;95243.88;;;8.05;100.00
6464;BME280;3265;42.694;23.282;2023-02-28T08:15:30;95240.19;;;8.14;100.00
6464;BME280;3265;42.694;23.282;2023-02-28T08:17:57;95246.56;;;8.18;100.00
6464;BME280;3265;42.694;23.282;2023-02-28T08:20:24;95256.28;;;8.37;100.00
6464;BME280;3265;42.694;23.282;2023-02-28T08:22:51;95259.13;;;8.42;100.00
6464;BME280;3265;42.694;23.282;2023-02-28T08:25:20;95261.50;;;8.43;100.00
6464;BME280;3265;42.694;23.282;2023-02-28T08:27:47;95261.34;;;8.51;100.00
6464;BME280;3265;42.694;23.282;2023-02-28T08:30:17;95260.97;;;8.54;100.00
6464;BME280;3265;42.694;23.282;2023-02-28T08:32:43;95262.63;;;8.62;100.00
6464;BME280;3265;42.694;23.282;2023-02-28T08:35:10;95271.06;;;8.71;100.00
6464;BME280;3265;42.694;23.282;2023-02-28T08:37:37;95254.28;;;8.67;100.00
6464;BME280;3265;42.694;23.282;2023-02-28T08:40:05;95263.72;;;8.81;100.00
6464;BME280;3265;42.694;23.282;2023-02-28T08:42:34;95249.75;;;8.75;100.00
6464;BME280;3265;42.694;23.282;2023-02-28T08:45:01;95257.94;;;8.79;100.00
6464;BME280;3265;42.694;23.282;2023-02-28T08:47:28;95262.91;;;8.74;100.00
6464;BME280;3265;42.694;23.282;2023-02-28T08:49:55;95256.50;;;8.70;100.00
6464;BME280;3265;42.694;23.282;2023-02-28T08:52:22;95266.28;;;8.74;100.00
6464;BME280;3265;42.694;23.282;2023-02-28T08:54:49;95268.09;;;8.74;100.00
6464;BME280;3265;42.694;23.282;2023-02-28T08:57:16;95263.78;;;8.53;100.00
6464;BME280;3265;42.694;23.282;2023-02-28T08:59:44;95264.69;;;8.18;100.00
6464;BME280;3265;42.694;23.282;2023-02-28T09:02:12;95273.84;;;8.20;100.00
6464;BME280;3265;42.694;23.282;2023-02-28T09:04:40;95271.91;;;8.22;100.00
6464;BME280;3265;42.694;23.282;2023-02-28T09:07:07;95256.03;;;8.04;100.00
6464;BME280;3265;42.694;23.282;2023-02-28T09:09:33;95269.03;;;8.11;100.00
6464;BME280;3265;42.694;23.282;2023-02-28T09:12:00;95271.47;;;8.19;100.00
6464;BME280;3265;42.694;23.282;2023-02-28T09:14:27;95262.59;;;8.07;100.00
6464;BME280;3265;42.694;23.282;2023-02-28T09:16:56;95231.78;;;7.84;100.00
6464;BME280;3265;42.694;23.282;2023-02-28T09:19:22;95226.53;;;7.77;100.00
6464;BME280;3265;42.694;23.282;2023-02-28T09:21:49;95260.25;;;8.12;100.00
6464;BME280;3265;42.694;23.282;2023-02-28T09:24:17;95260.09;;;8.20;100.00
6464;BME280;3265;42.694;23.282;2023-02-28T09:26:45;95242.25;;;8.25;100.00
6464;BME280;3265;42.694;23.282;2023-02-28T09:29:12;95257.94;;;8.44;100.00
6464;BME280;3265;42.694;23.282;2023-02-28T09:31:39;95259.34;;;8.47;100.00
6464;BME280;3265;42.694;23.282;2023-02-28T09:34:08;95254.97;;;8.47;100.00
6464;BME280;3265;42.694;23.282;2023-02-28T09:36:35;95258.75;;;8.51;100.00
6464;BME280;3265;42.694;23.282;2023-02-28T09:39:03;95258.25;;;8.63;100.00
6464;BME280;3265;42.694;23.282;2023-02-28T09:41:37;95260.38;;;8.52;100.00
6464;BME280;3265;42.694;23.282;2023-02-28T09:44:16;95250.63;;;8.27;100.00
6464;BME280;3265;42.694;23.282;2023-02-28T09:46:46;95254.53;;;8.44;100.00
6464;BME280;3265;42.694;23.282;2023-02-28T09:49:18;95258.75;;;8.51;100.00
6464;BME280;3265;42.694;23.282;2023-02-28T09:51:51;95254.22;;;8.60;100.00
6464;BME280;3265;42.694;23.282;2023-02-28T09:54:22;95249.31;;;8.72;100.00
6464;BME280;3265;42.694;23.282;2023-02-28T09:56:54;95237.19;;;8.79;100.00
6464;BME280;3265;42.694;23.282;2023-02-28T09:59:42;95242.81;;;8.89;100.00
6464;BME280;3265;42.694;23.282;2023-02-28T10:02:25;95236.28;;;8.93;100.00
6464;BME280;3265;42.694;23.282;2023-02-28T10:05:04;95240.09;;;9.03;100.00
6464;BME280;3265;42.694;23.282;2023-02-28T10:07:50;95227.53;;;9.07;100.00
6464;BME280;3265;42.694;23.282;2023-02-28T10:10:22;95228.63;;;9.26;100.00
6464;BME280;3265;42.694;23.282;2023-02-28T10:12:53;95201.50;;;9.35;100.00
6464;BME280;3265;42.694;23.282;2023-02-28T10:15:24;95219.13;;;9.65;100.00
6464;BME280;3265;42.694;23.282;2023-02-28T10:17:55;95204.34;;;9.73;100.00
6464;BME280;3265;42.694;23.282;2023-02-28T10:20:26;95231.50;;;9.96;100.00
6464;BME280;3265;42.694;23.282;2023-02-28T10:23:00;95227.53;;;10.13;100.00
6464;BME280;3265;42.694;23.282;2023-02-28T10:25:35;95225.94;;;10.25;100.00
6464;BME280;3265;42.694;23.282;2023-02-28T10:28:10;95217.13;;;10.40;100.00
6464;BME280;3265;42.694;23.282;2023-02-28T10:30:39;95217.47;;;10.56;100.00
6464;BME280;3265;42.694;23.282;2023-02-28T10:33:17;95211.28;;;10.70;100.00
6464;BME280;3265;42.694;23.282;2023-02-28T10:35:47;95191.31;;;10.58;100.00
6464;BME280;3265;42.694;23.282;2023-02-28T10:38:18;95193.66;;;10.79;100.00
6464;BME280;3265;42.694;23.282;2023-02-28T10:40:45;95189.78;;;10.88;100.00
6464;BME280;3265;42.694;23.282;2023-02-28T10:43:20;95183.72;;;11.07;100.00
6464;BME280;3265;42.694;23.282;2023-02-28T10:45:59;95183.59;;;11.33;100.00
6464;BME280;3265;42.694;23.282;2023-02-28T10:48:32;95181.56;;;11.67;100.00
6464;BME280;3265;42.694;23.282;2023-02-28T10:51:01;95157.53;;;11.96;100.00
6464;BME280;3265;42.694;23.282;2023-02-28T10:53:32;95165.13;;;12.40;100.00
6464;BME280;3265;42.694;23.282;2023-02-28T10:56:01;95172.56;;;12.73;100.00
6464;BME280;3265;42.694;23.282;2023-02-28T10:58:30;95167.13;;;13.11;100.00
6464;BME280;3265;42.694;23.282;2023-02-28T11:00:57;95164.13;;;13.55;100.00
6464;BME280;3265;42.694;23.282;2023-02-28T11:03:32;95174.97;;;13.82;96.19
6464;BME280;3265;42.694;23.282;2023-02-28T11:06:07;95171.78;;;13.80;93.59
6464;BME280;3265;42.694;23.282;2023-02-28T11:08:44;95164.31;;;13.95;94.20
6464;BME280;3265;42.694;23.282;2023-02-28T11:11:12;95165.16;;;14.42;93.75
6464;BME280;3265;42.694;23.282;2023-02-28T11:13:39;95168.31;;;14.44;90.23
6464;BME280;3265;42.694;23.282;2023-02-28T11:16:08;95169.56;;;14.65;90.67
6464;BME280;3265;42.694;23.282;2023-02-28T11:18:40;95167.72;;;14.65;88.79
6464;BME280;3265;42.694;23.282;2023-02-28T11:21:09;95161.16;;;14.51;90.29
6464;BME280;3265;42.694;23.282;2023-02-28T11:23:42;95165.59;;;14.51;90.34
6464;BME280;3265;42.694;23.282;2023-02-28T11:26:09;95166.94;;;14.30;90.13
6464;BME280;3265;42.694;23.282;2023-02-28T11:28:39;95154.88;;;14.17;90.55
6464;BME280;3265;42.694;23.282;2023-02-28T11:31:16;95159.78;;;14.26;90.82
6464;BME280;3265;42.694;23.282;2023-02-28T11:33:46;95151.38;;;14.35;90.37
6464;BME280;3265;42.694;23.282;2023-02-28T11:36:20;95155.50;;;14.43;90.07
6464;BME280;3265;42.694;23.282;2023-02-28T11:38:50;95154.63;;;14.77;89.24
6464;BME280;3265;42.694;23.282;2023-02-28T11:41:50;95154.16;;;15.20;88.83
6464;BME280;3265;42.694;23.282;2023-02-28T11:44:32;95140.53;;;15.34;86.53
6464;BME280;3265;42.694;23.282;2023-02-28T11:47:10;95155.78;;;15.38;84.13
6464;BME280;3265;42.694;23.282;2023-02-28T11:49:47;95140.69;;;15.00;84.71
6464;BME280;3265;42.694;23.282;2023-02-28T11:52:25;95135.34;;;14.95;84.87
6464;BME280;3265;42.694;23.282;2023-02-28T11:55:14;95149.19;;;15.07;85.17
6464;BME280;3265;42.694;23.282;2023-02-28T11:58:00;95147.75;;;15.44;84.49
6464;BME280;3265;42.694;23.282;2023-02-28T12:00:40;95147.78;;;15.89;83.33
6464;BME280;3265;42.694;23.282;2023-02-28T12:03:26;95151.03;;;16.13;82.12
6464;BME280;3265;42.694;23.282;2023-02-28T12:06:00;95137.16;;;16.34;80.84
6464;BME280;3265;42.694;23.282;2023-02-28T12:08:44;95148.34;;;16.46;80.72
6464;BME280;3265;42.694;23.282;2023-02-28T12:11:26;95155.13;;;16.59;80.63
6464;BME280;3265;42.694;23.282;2023-02-28T12:14:13;95149.94;;;16.64;78.73
6464;BME280;3265;42.694;23.282;2023-02-28T12:16:53;95123.00;;;16.35;78.52
6464;BME280;3265;42.694;23.282;2023-02-28T12:19:29;95122.00;;;16.19;78.86
6464;BME280;3265;42.694;23.282;2023-02-28T12:22:10;95145.66;;;16.41;78.79
6464;BME280;3265;42.694;23.282;2023-02-28T12:24:51;95142.91;;;16.14;79.20
6464;BME280;3265;42.694;23.282;2023-02-28T12:27:23;95122.19;;;16.13;79.15
6464;BME280;3265;42.694;23.282;2023-02-28T12:29:54;95151.13;;;16.39;78.13
6464;BME280;3265;42.694;23.282;2023-02-28T12:32:26;95153.84;;;16.61;77.74
6464;BME280;3265;42.694;23.282;2023-02-28T12:35:00;95134.44;;;16.62;76.90
6464;BME280;3265;42.694;23.282;2023-02-28T12:37:32;95137.94;;;16.68;76.69
6464;BME280;3265;42.694;23.282;2023-02-28T12:40:11;95131.66;;;16.52;76.16
6464;BME280;3265;42.694;23.282;2023-02-28T12:42:42;95125.56;;;16.13;77.60
6464;BME280;3265;42.694;23.282;2023-02-28T12:45:17;95118.28;;;15.82;78.24
6464;BME280;3265;42.694;23.282;2023-02-28T12:47:49;95130.00;;;15.46;79.16
6464;BME280;3265;42.694;23.282;2023-02-28T12:50:18;95111.88;;;15.00;80.93
6464;BME280;3265;42.694;23.282;2023-02-28T12:52:52;95121.31;;;15.01;81.31
6464;BME280;3265;42.694;23.282;2023-02-28T12:55:29;95106.19;;;14.74;82.00
6464;BME280;3265;42.694;23.282;2023-02-28T12:58:05;95119.59;;;14.66;82.80
6464;BME280;3265;42.694;23.282;2023-02-28T13:00:37;95121.66;;;14.64;84.13
6464;BME280;3265;42.694;23.282;2023-02-28T13:03:21;95111.78;;;14.32;84.00
6464;BME280;3265;42.694;23.282;2023-02-28T13:06:21;95109.88;;;14.39;84.32
6464;BME280;3265;42.694;23.282;2023-02-28T13:09:05;95125.31;;;14.29;83.72
6464;BME280;3265;42.694;23.282;2023-02-28T13:11:41;95122.06;;;14.33;83.08
6464;BME280;3265;42.694;23.282;2023-02-28T13:14:20;95122.84;;;13.99;84.18
6464;BME280;3265;42.694;23.282;2023-02-28T13:16:55;95115.22;;;13.97;85.52
6464;BME280;3265;42.694;23.282;2023-02-28T13:19:26;95103.50;;;13.88;85.02
6464;BME280;3265;42.694;23.282;2023-02-28T13:21:55;95095.00;;;13.70;85.84
6464;BME280;3265;42.694;23.282;2023-02-28T13:24:47;95108.41;;;13.73;85.40
6464;BME280;3265;42.694;23.282;2023-02-28T13:27:34;95098.97;;;13.84;85.55
6464;BME280;3265;42.694;23.282;2023-02-28T13:33:26;95103.75;;;14.10;83.86
6464;BME280;3265;42.694;23.282;2023-02-28T13:36:09;95121.34;;;14.14;83.41
6464;BME280;3265;42.694;23.282;2023-02-28T13:38:40;95106.13;;;14.00;84.54
6464;BME280;3265;42.694;23.282;2023-02-28T13:41:44;95106.34;;;13.75;85.32